Terminal Aerodrome Forecast
Issued by NWS Charleston, WV

Current Version | Previous Version | Text Only | Print | Product List | Glossary Off
Versions: 1 2 3 4 5 6 7 8 9 10 11 12 13 14 15 16 17 18 19 20 21 22 23 24 25

000
FTUS41 KRLX 210240 AAA
TAFCRW
TAF AMD
KCRW 210240Z 2102/2124 21005KT P6SM VCSH SCT050
     FM210700 24004KT 3SM TSRA BKN040CB
     FM210900 24006KT P6SM SHRA VCTS BKN015CB OVC025
     FM211800 28006KT P6SM BKN025
     FM212000 29005KT P6SM BKN045=

USA.gov is the U.S. government's official web portal to all federal, state and local government web resources and services.